sensor_id;sensor_type;location;lat;lon;timestamp;temperature;humidity
41592;DHT22;28026;48.562;14.440;2022-12-07T00:02:23;1.00;99.90
41592;DHT22;28026;48.562;14.440;2022-12-07T00:04:54;1.00;99.90
41592;DHT22;28026;48.562;14.440;2022-12-07T00:07:25;0.90;99.90
41592;DHT22;28026;48.562;14.440;2022-12-07T00:09:56;0.90;99.90
41592;DHT22;28026;48.562;14.440;2022-12-07T00:12:27;1.00;99.90
41592;DHT22;28026;48.562;14.440;2022-12-07T00:14:58;1.00;99.90
41592;DHT22;28026;48.562;14.440;2022-12-07T00:17:29;1.00;99.90
41592;DHT22;28026;48.562;14.440;2022-12-07T00:20:00;1.00;99.90
41592;DHT22;28026;48.562;14.440;2022-12-07T00:22:31;0.90;99.90
41592;DHT22;28026;48.562;14.440;2022-12-07T00:25:02;0.90;99.90
41592;DHT22;28026;48.562;14.440;2022-12-07T00:27:33;1.00;99.90
41592;DHT22;28026;48.562;14.440;2022-12-07T00:30:04;1.00;99.90
41592;DHT22;28026;48.562;14.440;2022-12-07T00:32:36;0.90;99.90
41592;DHT22;28026;48.562;14.440;2022-12-07T00:35:07;1.00;99.90
41592;DHT22;28026;48.562;14.440;2022-12-07T00:37:38;0.90;99.90
41592;DHT22;28026;48.562;14.440;2022-12-07T00:40:09;0.90;99.90
41592;DHT22;28026;48.562;14.440;2022-12-07T00:42:41;0.90;99.90
41592;DHT22;28026;48.562;14.440;2022-12-07T00:45:11;0.80;99.90
41592;DHT22;28026;48.562;14.440;2022-12-07T00:47:42;0.90;99.90
41592;DHT22;28026;48.562;14.440;2022-12-07T00:50:13;0.90;99.90
41592;DHT22;28026;48.562;14.440;2022-12-07T00:52:44;0.80;99.90
41592;DHT22;28026;48.562;14.440;2022-12-07T00:55:15;0.80;99.90
41592;DHT22;28026;48.562;14.440;2022-12-07T00:57:46;0.70;99.90
41592;DHT22;28026;48.562;14.440;2022-12-07T01:00:17;0.80;99.90
41592;DHT22;28026;48.562;14.440;2022-12-07T01:02:48;0.80;99.90
41592;DHT22;28026;48.562;14.440;2022-12-07T01:05:19;0.80;99.90
41592;DHT22;28026;48.562;14.440;2022-12-07T01:07:50;0.70;99.90
41592;DHT22;28026;48.562;14.440;2022-12-07T01:10:21;0.80;99.90
41592;DHT22;28026;48.562;14.440;2022-12-07T01:12:53;0.80;99.90
41592;DHT22;28026;48.562;14.440;2022-12-07T01:15:25;0.70;99.90
41592;DHT22;28026;48.562;14.440;2022-12-07T01:17:56;0.80;99.90
41592;DHT22;28026;48.562;14.440;2022-12-07T01:20:27;0.70;99.90
41592;DHT22;28026;48.562;14.440;2022-12-07T01:22:58;0.70;99.90
41592;DHT22;28026;48.562;14.440;2022-12-07T01:25:29;0.60;99.90
41592;DHT22;28026;48.562;14.440;2022-12-07T01:28:00;0.70;99.90
41592;DHT22;28026;48.562;14.440;2022-12-07T01:30:31;0.60;99.90
41592;DHT22;28026;48.562;14.440;2022-12-07T01:33:02;0.70;99.90
41592;DHT22;28026;48.562;14.440;2022-12-07T01:35:33;0.70;99.90
41592;DHT22;28026;48.562;14.440;2022-12-07T01:38:04;0.60;99.90
41592;DHT22;28026;48.562;14.440;2022-12-07T01:40:35;0.70;99.90
41592;DHT22;28026;48.562;14.440;2022-12-07T01:43:17;0.60;99.90
41592;DHT22;28026;48.562;14.440;2022-12-07T01:45:49;0.70;99.90
41592;DHT22;28026;48.562;14.440;2022-12-07T01:48:28;0.60;99.90
41592;DHT22;28026;48.562;14.440;2022-12-07T01:51:11;0.60;99.90
41592;DHT22;28026;48.562;14.440;2022-12-07T01:53:45;0.60;99.90
41592;DHT22;28026;48.562;14.440;2022-12-07T01:56:20;0.70;99.90
41592;DHT22;28026;48.562;14.440;2022-12-07T01:58:57;0.70;99.90
41592;DHT22;28026;48.562;14.440;2022-12-07T02:01:31;0.70;99.90
41592;DHT22;28026;48.562;14.440;2022-12-07T02:04:02;0.70;99.90
41592;DHT22;28026;48.562;14.440;2022-12-07T02:06:35;0.60;99.90
41592;DHT22;28026;48.562;14.440;2022-12-07T02:09:07;0.70;99.90
41592;DHT22;28026;48.562;14.440;2022-12-07T02:11:39;0.60;99.90
41592;DHT22;28026;48.562;14.440;2022-12-07T02:14:11;0.60;99.90
41592;DHT22;28026;48.562;14.440;2022-12-07T02:17:07;0.70;99.90
41592;DHT22;28026;48.562;14.440;2022-12-07T02:33:03;0.60;99.90
41592;DHT22;28026;48.562;14.440;2022-12-07T02:39:17;0.60;99.90
41592;DHT22;28026;48.562;14.440;2022-12-07T02:42:15;0.60;99.90
41592;DHT22;28026;48.562;14.440;2022-12-07T02:44:54;0.50;99.90
41592;DHT22;28026;48.562;14.440;2022-12-07T02:47:26;0.50;99.90
41592;DHT22;28026;48.562;14.440;2022-12-07T02:50:06;0.50;99.90
41592;DHT22;28026;48.562;14.440;2022-12-07T02:52:37;0.50;99.90
41592;DHT22;28026;48.562;14.440;2022-12-07T02:55:09;0.50;99.90
41592;DHT22;28026;48.562;14.440;2022-12-07T03:01:15;0.50;99.90
41592;DHT22;28026;48.562;14.440;2022-12-07T03:04:23;0.50;99.90
41592;DHT22;28026;48.562;14.440;2022-12-07T03:07:17;0.50;99.90
41592;DHT22;28026;48.562;14.440;2022-12-07T03:16:25;0.50;99.90
41592;DHT22;28026;48.562;14.440;2022-12-07T03:19:14;0.50;99.90
41592;DHT22;28026;48.562;14.440;2022-12-07T03:21:55;0.50;99.90
41592;DHT22;28026;48.562;14.440;2022-12-07T03:24:46;0.50;99.90
41592;DHT22;28026;48.562;14.440;2022-12-07T03:33:50;0.40;99.90
41592;DHT22;28026;48.562;14.440;2022-12-07T03:36:57;0.40;99.90
41592;DHT22;28026;48.562;14.440;2022-12-07T03:40:28;0.40;99.90
41592;DHT22;28026;48.562;14.440;2022-12-07T03:42:41;0.40;99.90
41592;DHT22;28026;48.562;14.440;2022-12-07T03:45:13;0.40;99.90
41592;DHT22;28026;48.562;14.440;2022-12-07T03:54:28;0.40;99.90
41592;DHT22;28026;48.562;14.440;2022-12-07T03:57:08;0.40;99.90
41592;DHT22;28026;48.562;14.440;2022-12-07T03:59:42;0.30;99.90
41592;DHT22;28026;48.562;14.440;2022-12-07T04:02:14;0.30;99.90
41592;DHT22;28026;48.562;14.440;2022-12-07T04:04:46;0.30;99.90
41592;DHT22;28026;48.562;14.440;2022-12-07T04:07:17;0.40;99.90
41592;DHT22;28026;48.562;14.440;2022-12-07T04:09:49;0.40;99.90
41592;DHT22;28026;48.562;14.440;2022-12-07T04:12:20;0.40;99.90
41592;DHT22;28026;48.562;14.440;2022-12-07T04:14:52;0.40;99.90
41592;DHT22;28026;48.562;14.440;2022-12-07T04:17:23;0.40;99.90
41592;DHT22;28026;48.562;14.440;2022-12-07T04:19:54;0.40;99.90
41592;DHT22;28026;48.562;14.440;2022-12-07T04:22:25;0.40;99.90
41592;DHT22;28026;48.562;14.440;2022-12-07T04:24:56;0.40;99.90
41592;DHT22;28026;48.562;14.440;2022-12-07T04:27:27;0.40;99.90
41592;DHT22;28026;48.562;14.440;2022-12-07T04:29:58;0.40;99.90
41592;DHT22;28026;48.562;14.440;2022-12-07T04:32:29;0.40;99.90
41592;DHT22;28026;48.562;14.440;2022-12-07T04:35:00;0.40;99.90
41592;DHT22;28026;48.562;14.440;2022-12-07T04:37:31;0.50;99.90
41592;DHT22;28026;48.562;14.440;2022-12-07T04:40:02;0.40;99.90
41592;DHT22;28026;48.562;14.440;2022-12-07T04:42:33;0.50;99.90
41592;DHT22;28026;48.562;14.440;2022-12-07T04:45:04;0.50;99.90
41592;DHT22;28026;48.562;14.440;2022-12-07T04:47:36;0.50;99.90
41592;DHT22;28026;48.562;14.440;2022-12-07T04:50:09;0.50;99.90
41592;DHT22;28026;48.562;14.440;2022-12-07T04:52:40;0.50;99.90
41592;DHT22;28026;48.562;14.440;2022-12-07T04:55:11;0.50;99.90
41592;DHT22;28026;48.562;14.440;2022-12-07T04:57:42;0.50;99.90
41592;DHT22;28026;48.562;14.440;2022-12-07T05:00:13;0.40;99.90
41592;DHT22;28026;48.562;14.440;2022-12-07T05:02:44;0.50;99.90
41592;DHT22;28026;48.562;14.440;2022-12-07T05:05:15;0.50;99.90
41592;DHT22;28026;48.562;14.440;2022-12-07T05:07:46;0.40;99.90
41592;DHT22;28026;48.562;14.440;2022-12-07T05:10:17;0.40;99.90
41592;DHT22;28026;48.562;14.440;2022-12-07T05:12:48;0.40;99.90
41592;DHT22;28026;48.562;14.440;2022-12-07T05:15:19;0.40;99.90
41592;DHT22;28026;48.562;14.440;2022-12-07T05:17:50;0.40;99.90
41592;DHT22;28026;48.562;14.440;2022-12-07T05:20:22;0.50;99.90
41592;DHT22;28026;48.562;14.440;2022-12-07T05:22:53;0.50;99.90
41592;DHT22;28026;48.562;14.440;2022-12-07T05:25:24;0.50;99.90
41592;DHT22;28026;48.562;14.440;2022-12-07T05:27:56;0.50;99.90
41592;DHT22;28026;48.562;14.440;2022-12-07T05:30:27;0.50;99.90
41592;DHT22;28026;48.562;14.440;2022-12-07T05:32:59;0.40;99.90
41592;DHT22;28026;48.562;14.440;2022-12-07T05:35:32;0.50;99.90
41592;DHT22;28026;48.562;14.440;2022-12-07T05:38:04;0.40;99.90
41592;DHT22;28026;48.562;14.440;2022-12-07T05:40:36;0.30;99.90
41592;DHT22;28026;48.562;14.440;2022-12-07T05:43:07;0.40;99.90
41592;DHT22;28026;48.562;14.440;2022-12-07T05:45:38;0.40;99.90
41592;DHT22;28026;48.562;14.440;2022-12-07T05:48:09;0.40;99.90
41592;DHT22;28026;48.562;14.440;2022-12-07T05:50:40;0.40;99.90
41592;DHT22;28026;48.562;14.440;2022-12-07T05:53:11;0.30;99.90
41592;DHT22;28026;48.562;14.440;2022-12-07T05:55:43;0.30;99.90
41592;DHT22;28026;48.562;14.440;2022-12-07T05:58:15;0.30;99.90
41592;DHT22;28026;48.562;14.440;2022-12-07T06:01:04;0.30;99.90
41592;DHT22;28026;48.562;14.440;2022-12-07T06:03:35;0.30;99.90
41592;DHT22;28026;48.562;14.440;2022-12-07T06:06:06;0.30;99.90
41592;DHT22;28026;48.562;14.440;2022-12-07T06:08:37;0.30;99.90
41592;DHT22;28026;48.562;14.440;2022-12-07T06:11:08;0.30;99.90
41592;DHT22;28026;48.562;14.440;2022-12-07T06:13:57;0.30;99.90
41592;DHT22;28026;48.562;14.440;2022-12-07T06:16:28;0.40;99.90
41592;DHT22;28026;48.562;14.440;2022-12-07T06:18:59;0.30;99.90
41592;DHT22;28026;48.562;14.440;2022-12-07T06:21:30;0.10;99.90
41592;DHT22;28026;48.562;14.440;2022-12-07T06:24:01;0.10;99.90
41592;DHT22;28026;48.562;14.440;2022-12-07T06:26:32;0.10;99.90
41592;DHT22;28026;48.562;14.440;2022-12-07T06:29:03;0.10;99.90
41592;DHT22;28026;48.562;14.440;2022-12-07T06:31:35;0.10;99.90
41592;DHT22;28026;48.562;14.440;2022-12-07T06:34:12;0.10;99.90
41592;DHT22;28026;48.562;14.440;2022-12-07T06:36:50;0.10;99.90
41592;DHT22;28026;48.562;14.440;2022-12-07T06:39:26;0.10;99.90
41592;DHT22;28026;48.562;14.440;2022-12-07T06:41:59;0.10;99.90
41592;DHT22;28026;48.562;14.440;2022-12-07T06:44:30;0.00;99.90
41592;DHT22;28026;48.562;14.440;2022-12-07T06:47:01;0.10;99.90
41592;DHT22;28026;48.562;14.440;2022-12-07T06:49:32;0.00;99.90
41592;DHT22;28026;48.562;14.440;2022-12-07T06:52:03;0.00;99.90
41592;DHT22;28026;48.562;14.440;2022-12-07T06:54:36;0.00;99.90
41592;DHT22;28026;48.562;14.440;2022-12-07T06:57:06;0.10;99.90
41592;DHT22;28026;48.562;14.440;2022-12-07T06:59:37;0.00;99.90
41592;DHT22;28026;48.562;14.440;2022-12-07T07:02:08;0.00;99.90
41592;DHT22;28026;48.562;14.440;2022-12-07T07:04:40;0.00;99.90
41592;DHT22;28026;48.562;14.440;2022-12-07T07:07:11;0.00;99.90
41592;DHT22;28026;48.562;14.440;2022-12-07T07:09:42;0.00;99.90
41592;DHT22;28026;48.562;14.440;2022-12-07T07:12:13;0.00;99.90
41592;DHT22;28026;48.562;14.440;2022-12-07T07:14:43;0.00;99.90
41592;DHT22;28026;48.562;14.440;2022-12-07T07:17:14;0.00;99.90
41592;DHT22;28026;48.562;14.440;2022-12-07T07:19:45;0.00;99.90
41592;DHT22;28026;48.562;14.440;2022-12-07T07:22:16;0.00;99.90
41592;DHT22;28026;48.562;14.440;2022-12-07T07:24:47;0.10;99.90
41592;DHT22;28026;48.562;14.440;2022-12-07T07:27:18;0.10;99.90
41592;DHT22;28026;48.562;14.440;2022-12-07T07:29:49;0.10;99.90
41592;DHT22;28026;48.562;14.440;2022-12-07T07:32:20;0.10;99.90
41592;DHT22;28026;48.562;14.440;2022-12-07T07:34:52;0.20;99.90
41592;DHT22;28026;48.562;14.440;2022-12-07T07:37:23;0.10;99.90
41592;DHT22;28026;48.562;14.440;2022-12-07T07:39:54;0.10;99.90
41592;DHT22;28026;48.562;14.440;2022-12-07T07:42:25;0.30;99.90
41592;DHT22;28026;48.562;14.440;2022-12-07T07:44:56;0.10;99.90
41592;DHT22;28026;48.562;14.440;2022-12-07T07:47:27;0.00;99.90
41592;DHT22;28026;48.562;14.440;2022-12-07T07:49:59;0.10;99.90
41592;DHT22;28026;48.562;14.440;2022-12-07T07:52:31;0.50;99.90
41592;DHT22;28026;48.562;14.440;2022-12-07T07:55:02;0.80;99.90
41592;DHT22;28026;48.562;14.440;2022-12-07T07:57:38;0.60;99.90
41592;DHT22;28026;48.562;14.440;2022-12-07T08:00:12;0.50;99.90
41592;DHT22;28026;48.562;14.440;2022-12-07T08:02:45;0.30;99.90
41592;DHT22;28026;48.562;14.440;2022-12-07T08:05:16;0.40;99.90
41592;DHT22;28026;48.562;14.440;2022-12-07T08:07:48;0.90;99.90
41592;DHT22;28026;48.562;14.440;2022-12-07T08:10:18;1.10;99.90
41592;DHT22;28026;48.562;14.440;2022-12-07T08:12:49;1.20;99.90
41592;DHT22;28026;48.562;14.440;2022-12-07T08:15:41;1.00;99.90
41592;DHT22;28026;48.562;14.440;2022-12-07T08:18:17;0.60;99.90
41592;DHT22;28026;48.562;14.440;2022-12-07T08:20:48;0.70;99.90
41592;DHT22;28026;48.562;14.440;2022-12-07T08:23:19;0.20;99.90
41592;DHT22;28026;48.562;14.440;2022-12-07T08:25:49;0.10;99.90
41592;DHT22;28026;48.562;14.440;2022-12-07T08:28:20;0.50;99.90
41592;DHT22;28026;48.562;14.440;2022-12-07T08:30:51;0.40;99.90
41592;DHT22;28026;48.562;14.440;2022-12-07T08:33:22;0.10;99.90
41592;DHT22;28026;48.562;14.440;2022-12-07T08:35:53;-0.30;99.90
41592;DHT22;28026;48.562;14.440;2022-12-07T08:38:24;-0.20;99.90
41592;DHT22;28026;48.562;14.440;2022-12-07T08:40:56;0.30;99.90
41592;DHT22;28026;48.562;14.440;2022-12-07T08:43:29;0.10;99.90
41592;DHT22;28026;48.562;14.440;2022-12-07T08:49:02;0.60;99.90
41592;DHT22;28026;48.562;14.440;2022-12-07T08:51:40;0.70;99.90
41592;DHT22;28026;48.562;14.440;2022-12-07T08:54:15;0.70;99.90
41592;DHT22;28026;48.562;14.440;2022-12-07T08:56:49;0.70;99.90
41592;DHT22;28026;48.562;14.440;2022-12-07T08:59:22;0.70;99.90
41592;DHT22;28026;48.562;14.440;2022-12-07T09:01:54;0.40;99.90
41592;DHT22;28026;48.562;14.440;2022-12-07T09:04:25;0.40;99.90
41592;DHT22;28026;48.562;14.440;2022-12-07T09:06:56;0.50;99.90
41592;DHT22;28026;48.562;14.440;2022-12-07T09:09:27;0.60;99.90
41592;DHT22;28026;48.562;14.440;2022-12-07T09:11:58;0.80;99.90
41592;DHT22;28026;48.562;14.440;2022-12-07T09:14:29;0.90;99.90
41592;DHT22;28026;48.562;14.440;2022-12-07T09:17:11;1.20;99.90
41592;DHT22;28026;48.562;14.440;2022-12-07T09:19:43;1.30;99.90
41592;DHT22;28026;48.562;14.440;2022-12-07T09:22:14;1.50;99.90
41592;DHT22;28026;48.562;14.440;2022-12-07T09:24:45;1.50;99.90
41592;DHT22;28026;48.562;14.440;2022-12-07T09:27:16;1.50;99.90
41592;DHT22;28026;48.562;14.440;2022-12-07T09:29:48;1.50;99.90
41592;DHT22;28026;48.562;14.440;2022-12-07T09:32:19;1.10;99.90
41592;DHT22;28026;48.562;14.440;2022-12-07T09:34:50;1.10;99.90
41592;DHT22;28026;48.562;14.440;2022-12-07T09:37:21;1.80;99.90
41592;DHT22;28026;48.562;14.440;2022-12-07T09:39:52;2.20;99.90
41592;DHT22;28026;48.562;14.440;2022-12-07T09:42:34;2.50;99.90
41592;DHT22;28026;48.562;14.440;2022-12-07T09:45:17;3.10;99.90
41592;DHT22;28026;48.562;14.440;2022-12-07T09:47:51;3.40;99.90
41592;DHT22;28026;48.562;14.440;2022-12-07T09:50:25;3.00;99.90
41592;DHT22;28026;48.562;14.440;2022-12-07T09:53:13;4.00;99.90
41592;DHT22;28026;48.562;14.440;2022-12-07T09:55:53;3.80;99.90
41592;DHT22;28026;48.562;14.440;2022-12-07T09:58:27;4.10;99.90
41592;DHT22;28026;48.562;14.440;2022-12-07T10:01:14;4.10;99.90
41592;DHT22;28026;48.562;14.440;2022-12-07T10:06:29;3.30;99.90
41592;DHT22;28026;48.562;14.440;2022-12-07T10:09:00;4.00;99.90
41592;DHT22;28026;48.562;14.440;2022-12-07T10:11:31;3.60;99.90
41592;DHT22;28026;48.562;14.440;2022-12-07T10:14:13;4.20;99.90
41592;DHT22;28026;48.562;14.440;2022-12-07T10:16:44;3.60;99.90
41592;DHT22;28026;48.562;14.440;2022-12-07T10:19:32;2.90;99.90
41592;DHT22;28026;48.562;14.440;2022-12-07T10:22:11;2.90;99.90
41592;DHT22;28026;48.562;14.440;2022-12-07T10:24:47;2.90;99.90
41592;DHT22;28026;48.562;14.440;2022-12-07T10:27:26;3.50;99.90
41592;DHT22;28026;48.562;14.440;2022-12-07T10:30:07;3.60;99.90
41592;DHT22;28026;48.562;14.440;2022-12-07T10:32:45;3.70;99.90
41592;DHT22;28026;48.562;14.440;2022-12-07T10:35:21;3.90;99.90
41592;DHT22;28026;48.562;14.440;2022-12-07T10:37:59;3.00;99.90
41592;DHT22;28026;48.562;14.440;2022-12-07T10:40:32;3.10;99.90
41592;DHT22;28026;48.562;14.440;2022-12-07T10:46:07;3.60;99.90
41592;DHT22;28026;48.562;14.440;2022-12-07T10:55:47;2.90;99.90
41592;DHT22;28026;48.562;14.440;2022-12-07T11:02:13;3.30;99.90
41592;DHT22;28026;48.562;14.440;2022-12-07T11:05:33;4.00;99.90
41592;DHT22;28026;48.562;14.440;2022-12-07T11:14:29;3.10;99.90
41592;DHT22;28026;48.562;14.440;2022-12-07T11:21:07;3.10;99.90
41592;DHT22;28026;48.562;14.440;2022-12-07T11:24:09;2.90;99.90
41592;DHT22;28026;48.562;14.440;2022-12-07T11:33:56;2.50;99.90
41592;DHT22;28026;48.562;14.440;2022-12-07T11:36:44;2.90;99.90
41592;DHT22;28026;48.562;14.440;2022-12-07T11:39:33;3.00;99.90
41592;DHT22;28026;48.562;14.440;2022-12-07T11:42:19;2.50;99.90
41592;DHT22;28026;48.562;14.440;2022-12-07T11:45:12;2.80;99.90
41592;DHT22;28026;48.562;14.440;2022-12-07T11:47:58;3.30;99.90
41592;DHT22;28026;48.562;14.440;2022-12-07T11:50:43;3.70;99.90
41592;DHT22;28026;48.562;14.440;2022-12-07T11:53:28;2.40;99.90
41592;DHT22;28026;48.562;14.440;2022-12-07T12:01:35;1.90;99.90
41592;DHT22;28026;48.562;14.440;2022-12-07T12:06:44;1.50;99.90
41592;DHT22;28026;48.562;14.440;2022-12-07T12:15:52;1.60;99.90
41592;DHT22;28026;48.562;14.440;2022-12-07T12:21:33;1.90;99.90
41592;DHT22;28026;48.562;14.440;2022-12-07T12:24:16;1.70;99.90
41592;DHT22;28026;48.562;14.440;2022-12-07T12:27:07;1.70;99.90
41592;DHT22;28026;48.562;14.440;2022-12-07T12:29:53;1.60;99.90
41592;DHT22;28026;48.562;14.440;2022-12-07T12:32:40;1.50;99.90
41592;DHT22;28026;48.562;14.440;2022-12-07T12:35:35;1.60;99.90
41592;DHT22;28026;48.562;14.440;2022-12-07T12:38:33;1.40;99.90
41592;DHT22;28026;48.562;14.440;2022-12-07T12:47:04;1.80;99.90
41592;DHT22;28026;48.562;14.440;2022-12-07T12:50:44;1.90;99.90
41592;DHT22;28026;48.562;14.440;2022-12-07T12:53:25;1.70;99.90
41592;DHT22;28026;48.562;14.440;2022-12-07T12:59:28;1.60;99.90
41592;DHT22;28026;48.562;14.440;2022-12-07T13:10:37;1.50;99.90
41592;DHT22;28026;48.562;14.440;2022-12-07T13:18:39;2.00;99.90
41592;DHT22;28026;48.562;14.440;2022-12-07T13:29:17;1.70;99.90
41592;DHT22;28026;48.562;14.440;2022-12-07T13:31:55;1.40;99.90
41592;DHT22;28026;48.562;14.440;2022-12-07T13:34:40;1.60;99.90
41592;DHT22;28026;48.562;14.440;2022-12-07T13:37:18;1.90;99.90
41592;DHT22;28026;48.562;14.440;2022-12-07T13:40:00;1.90;99.90
41592;DHT22;28026;48.562;14.440;2022-12-07T13:42:58;1.60;99.90
41592;DHT22;28026;48.562;14.440;2022-12-07T13:45:33;1.40;99.90
41592;DHT22;28026;48.562;14.440;2022-12-07T13:48:32;1.40;99.90
41592;DHT22;28026;48.562;14.440;2022-12-07T13:51:28;1.20;99.90
41592;DHT22;28026;48.562;14.440;2022-12-07T13:54:11;1.30;99.90
41592;DHT22;28026;48.562;14.440;2022-12-07T13:56:43;1.20;99.90
41592;DHT22;28026;48.562;14.440;2022-12-07T13:59:23;1.10;99.90
41592;DHT22;28026;48.562;14.440;2022-12-07T14:01:56;1.20;99.90
41592;DHT22;28026;48.562;14.440;2022-12-07T14:07:47;0.90;99.90
41592;DHT22;28026;48.562;14.440;2022-12-07T14:10:35;1.00;99.90
41592;DHT22;28026;48.562;14.440;2022-12-07T14:13:33;0.80;99.90
41592;DHT22;28026;48.562;14.440;2022-12-07T14:16:36;0.80;99.90
41592;DHT22;28026;48.562;14.440;2022-12-07T14:22:34;0.90;99.90
41592;DHT22;28026;48.562;14.440;2022-12-07T14:25:18;0.70;99.90
41592;DHT22;28026;48.562;14.440;2022-12-07T14:28:00;0.90;99.90
41592;DHT22;28026;48.562;14.440;2022-12-07T14:30:34;0.80;99.90
41592;DHT22;28026;48.562;14.440;2022-12-07T14:33:05;0.70;99.90
41592;DHT22;28026;48.562;14.440;2022-12-07T14:35:39;0.60;99.90
41592;DHT22;28026;48.562;14.440;2022-12-07T14:38:10;0.60;99.90
41592;DHT22;28026;48.562;14.440;2022-12-07T14:40:41;0.40;99.90
41592;DHT22;28026;48.562;14.440;2022-12-07T14:43:16;0.20;99.90
41592;DHT22;28026;48.562;14.440;2022-12-07T14:45:49;0.10;99.90
41592;DHT22;28026;48.562;14.440;2022-12-07T14:48:20;0.00;99.90
41592;DHT22;28026;48.562;14.440;2022-12-07T14:50:52;0.00;99.90
41592;DHT22;28026;48.562;14.440;2022-12-07T14:53:30;-0.10;99.90
41592;DHT22;28026;48.562;14.440;2022-12-07T14:56:07;-0.20;99.90
41592;DHT22;28026;48.562;14.440;2022-12-07T14:58:39;-0.40;99.90
41592;DHT22;28026;48.562;14.440;2022-12-07T15:01:10;-0.50;99.90
41592;DHT22;28026;48.562;14.440;2022-12-07T15:03:41;-0.60;99.90
41592;DHT22;28026;48.562;14.440;2022-12-07T15:06:17;-0.50;99.90
41592;DHT22;28026;48.562;14.440;2022-12-07T15:08:48;-0.30;99.90
41592;DHT22;28026;48.562;14.440;2022-12-07T15:11:19;-0.20;99.90
41592;DHT22;28026;48.562;14.440;2022-12-07T15:13:50;0.00;99.90
41592;DHT22;28026;48.562;14.440;2022-12-07T15:16:42;0.00;99.90
41592;DHT22;28026;48.562;14.440;2022-12-07T15:19:19;0.10;99.90
41592;DHT22;28026;48.562;14.440;2022-12-07T15:21:54;0.30;99.90
41592;DHT22;28026;48.562;14.440;2022-12-07T15:24:26;0.30;99.90
41592;DHT22;28026;48.562;14.440;2022-12-07T15:26:58;0.40;99.90
41592;DHT22;28026;48.562;14.440;2022-12-07T15:29:29;0.40;99.90
41592;DHT22;28026;48.562;14.440;2022-12-07T15:32:00;0.40;99.90
41592;DHT22;28026;48.562;14.440;2022-12-07T15:34:31;0.50;99.90
41592;DHT22;28026;48.562;14.440;2022-12-07T15:37:02;0.50;99.90
41592;DHT22;28026;48.562;14.440;2022-12-07T15:39:33;0.60;99.90
41592;DHT22;28026;48.562;14.440;2022-12-07T15:42:04;0.50;99.90
41592;DHT22;28026;48.562;14.440;2022-12-07T15:44:35;0.40;99.90
41592;DHT22;28026;48.562;14.440;2022-12-07T15:47:24;0.40;99.90
41592;DHT22;28026;48.562;14.440;2022-12-07T15:49:55;0.40;99.90
41592;DHT22;28026;48.562;14.440;2022-12-07T15:52:26;0.40;99.90
41592;DHT22;28026;48.562;14.440;2022-12-07T15:54:57;0.40;99.90
41592;DHT22;28026;48.562;14.440;2022-12-07T15:57:31;0.40;99.90
41592;DHT22;28026;48.562;14.440;2022-12-07T16:00:08;0.40;99.90
41592;DHT22;28026;48.562;14.440;2022-12-07T16:02:41;0.40;99.90
41592;DHT22;28026;48.562;14.440;2022-12-07T16:05:12;0.40;99.90
41592;DHT22;28026;48.562;14.440;2022-12-07T16:07:43;0.40;99.90
41592;DHT22;28026;48.562;14.440;2022-12-07T16:10:16;0.10;99.90
41592;DHT22;28026;48.562;14.440;2022-12-07T16:12:47;0.00;99.90
41592;DHT22;28026;48.562;14.440;2022-12-07T16:15:18;0.00;99.90
41592;DHT22;28026;48.562;14.440;2022-12-07T16:17:49;0.10;99.90
41592;DHT22;28026;48.562;14.440;2022-12-07T16:20:20;0.10;99.90
41592;DHT22;28026;48.562;14.440;2022-12-07T16:22:52;0.00;99.90
41592;DHT22;28026;48.562;14.440;2022-12-07T16:25:23;0.00;99.90
41592;DHT22;28026;48.562;14.440;2022-12-07T16:27:54;0.00;99.90
41592;DHT22;28026;48.562;14.440;2022-12-07T16:30:25;0.00;99.90
41592;DHT22;28026;48.562;14.440;2022-12-07T16:32:56;0.00;99.90
41592;DHT22;28026;48.562;14.440;2022-12-07T16:35:27;0.00;99.90
41592;DHT22;28026;48.562;14.440;2022-12-07T16:37:58;0.00;99.90
41592;DHT22;28026;48.562;14.440;2022-12-07T16:40:29;-0.10;99.90
41592;DHT22;28026;48.562;14.440;2022-12-07T16:42:59;0.00;99.90
41592;DHT22;28026;48.562;14.440;2022-12-07T16:45:30;0.10;99.90
41592;DHT22;28026;48.562;14.440;2022-12-07T16:48:01;0.20;99.90
41592;DHT22;28026;48.562;14.440;2022-12-07T16:50:32;0.20;99.90
41592;DHT22;28026;48.562;14.440;2022-12-07T16:53:03;0.20;99.90
41592;DHT22;28026;48.562;14.440;2022-12-07T16:55:43;0.10;99.90
41592;DHT22;28026;48.562;14.440;2022-12-07T16:58:16;0.20;99.90
41592;DHT22;28026;48.562;14.440;2022-12-07T17:00:47;0.10;99.90
41592;DHT22;28026;48.562;14.440;2022-12-07T17:03:18;0.10;99.90
41592;DHT22;28026;48.562;14.440;2022-12-07T17:05:50;0.00;99.90
41592;DHT22;28026;48.562;14.440;2022-12-07T17:08:20;-0.10;99.90
41592;DHT22;28026;48.562;14.440;2022-12-07T17:10:51;0.10;99.90
41592;DHT22;28026;48.562;14.440;2022-12-07T17:13:22;0.20;99.90
41592;DHT22;28026;48.562;14.440;2022-12-07T17:16:12;0.20;99.90
41592;DHT22;28026;48.562;14.440;2022-12-07T17:18:42;0.20;99.90
41592;DHT22;28026;48.562;14.440;2022-12-07T17:21:13;0.30;99.90
41592;DHT22;28026;48.562;14.440;2022-12-07T17:23:44;0.20;99.90
41592;DHT22;28026;48.562;14.440;2022-12-07T17:26:18;0.10;99.90
41592;DHT22;28026;48.562;14.440;2022-12-07T17:28:55;0.10;99.90
41592;DHT22;28026;48.562;14.440;2022-12-07T17:31:27;-0.10;99.90
41592;DHT22;28026;48.562;14.440;2022-12-07T17:33:59;-0.20;99.90
41592;DHT22;28026;48.562;14.440;2022-12-07T17:36:31;-0.20;99.90
41592;DHT22;28026;48.562;14.440;2022-12-07T17:39:09;-0.20;99.90
41592;DHT22;28026;48.562;14.440;2022-12-07T17:41:44;-0.20;99.90
41592;DHT22;28026;48.562;14.440;2022-12-07T17:44:34;-0.20;99.90
41592;DHT22;28026;48.562;14.440;2022-12-07T17:47:05;-0.20;99.90
41592;DHT22;28026;48.562;14.440;2022-12-07T17:49:37;-0.20;99.90
41592;DHT22;28026;48.562;14.440;2022-12-07T17:52:08;-0.10;99.90
41592;DHT22;28026;48.562;14.440;2022-12-07T17:54:58;-0.20;99.90
41592;DHT22;28026;48.562;14.440;2022-12-07T17:57:29;-0.20;99.90
41592;DHT22;28026;48.562;14.440;2022-12-07T18:00:00;-0.10;99.90
41592;DHT22;28026;48.562;14.440;2022-12-07T18:02:31;-0.10;99.90
41592;DHT22;28026;48.562;14.440;2022-12-07T18:05:02;-0.10;99.90
41592;DHT22;28026;48.562;14.440;2022-12-07T18:07:34;-0.20;99.90
41592;DHT22;28026;48.562;14.440;2022-12-07T18:10:05;-0.10;99.90
41592;DHT22;28026;48.562;14.440;2022-12-07T18:12:38;-0.10;99.90
41592;DHT22;28026;48.562;14.440;2022-12-07T18:15:10;-0.10;99.90
41592;DHT22;28026;48.562;14.440;2022-12-07T18:17:40;0.00;99.90
41592;DHT22;28026;48.562;14.440;2022-12-07T18:20:12;0.10;99.90
41592;DHT22;28026;48.562;14.440;2022-12-07T18:22:43;0.10;99.90
41592;DHT22;28026;48.562;14.440;2022-12-07T18:25:13;0.00;99.90
41592;DHT22;28026;48.562;14.440;2022-12-07T18:27:44;0.10;99.90
41592;DHT22;28026;48.562;14.440;2022-12-07T18:30:15;0.00;99.90
41592;DHT22;28026;48.562;14.440;2022-12-07T18:32:46;0.10;99.90